createdAt,value
2019-01-08T00:02:10.670Z,3.33
2019-01-08T00:04:50.335Z,2.83
2019-01-08T00:10:42.626Z,3.52
2019-01-08T00:13:22.412Z,3.08
2019-01-08T00:16:02.727Z,2.80
2019-01-08T00:18:42.547Z,3.15
2019-01-08T00:21:22.550Z,3.00
2019-01-08T00:24:02.158Z,2.80
2019-01-08T00:26:42.374Z,2.75
2019-01-08T00:29:22.202Z,2.50
2019-01-08T00:32:01.399Z,2.33
2019-01-08T00:34:38.674Z,2.50
2019-01-08T00:37:18.779Z,2.45
2019-01-08T00:39:58.716Z,2.20
2019-01-08T00:42:39.014Z,2.30
2019-01-08T00:45:18.834Z,2.20
2019-01-08T00:47:59.250Z,2.25
2019-01-08T00:50:39.287Z,2.17
2019-01-08T00:53:19.364Z,2.20
2019-01-08T00:55:59.190Z,2.70
2019-01-08T00:58:38.411Z,2.43
2019-01-08T01:04:28.115Z,2.08
2019-01-08T01:07:14.238Z,2.20
2019-01-08T01:09:54.090Z,2.50
2019-01-08T01:12:33.946Z,2.40
2019-01-08T01:15:14.058Z,2.33
2019-01-08T01:17:53.809Z,2.40
2019-01-08T01:20:35.215Z,2.17
2019-01-08T01:23:14.886Z,2.27
2019-01-08T01:25:54.963Z,2.22
2019-01-08T01:28:34.914Z,2.07
2019-01-08T01:31:14.135Z,2.05
2019-01-08T01:33:51.751Z,2.00
2019-01-08T01:36:31.362Z,2.20
2019-01-08T01:39:11.386Z,2.02
2019-01-08T01:41:50.658Z,2.30
2019-01-08T01:44:30.546Z,1.92
2019-01-08T01:47:10.675Z,2.10
2019-01-08T01:49:50.610Z,2.25
2019-01-08T01:52:30.629Z,2.02
2019-01-08T01:55:10.371Z,2.08
2019-01-08T01:57:49.666Z,2.12
2019-01-08T02:00:29.358Z,2.10
2019-01-08T02:03:07.401Z,2.30
2019-01-08T02:05:53.558Z,2.40
2019-01-08T02:08:39.898Z,2.30
2019-01-08T02:11:19.568Z,2.67
2019-01-08T02:13:58.902Z,2.72
2019-01-08T02:16:38.618Z,2.80
2019-01-08T02:19:18.682Z,2.35
2019-01-08T02:22:01.132Z,2.50
2019-01-08T02:24:40.914Z,2.70
2019-01-08T02:27:20.724Z,2.27
2019-01-08T02:32:58.874Z,2.40
2019-01-08T02:35:38.906Z,2.67
2019-01-08T02:38:05.333Z,2.62
2019-01-08T02:40:51.447Z,2.40
2019-01-08T02:43:31.689Z,2.72
2019-01-08T02:46:11.406Z,2.30
2019-01-08T02:48:51.140Z,2.00
2019-01-08T02:51:30.484Z,2.45
2019-01-08T02:54:10.334Z,2.10
2019-01-08T02:56:50.283Z,2.08
2019-01-08T02:59:27.842Z,1.90
2019-01-08T03:02:14.052Z,1.77
2019-01-08T03:04:53.418Z,1.57
2019-01-08T03:07:33.269Z,1.75
2019-01-08T03:10:13.475Z,1.35
2019-01-08T03:12:53.311Z,1.55
2019-01-08T03:15:33.422Z,1.12
2019-01-08T03:18:12.993Z,1.37
2019-01-08T03:20:53.020Z,1.20
2019-01-08T03:23:32.858Z,1.45
2019-01-08T03:26:14.914Z,1.52
2019-01-08T03:28:54.938Z,1.62
2019-01-08T03:31:35.031Z,1.37
2019-01-08T03:34:12.351Z,1.27
2019-01-08T03:36:52.139Z,0.98
2019-01-08T03:39:32.071Z,1.20
2019-01-08T03:42:12.166Z,1.20
2019-01-08T03:44:52.105Z,1.27
2019-01-08T03:47:32.090Z,1.20
2019-01-08T03:50:12.062Z,1.17
2019-01-08T03:52:52.199Z,1.27
2019-01-08T03:55:32.022Z,1.00
2019-01-08T03:58:11.941Z,1.07
2019-01-08T04:00:52.008Z,1.05
2019-01-08T04:03:32.014Z,0.90
2019-01-08T04:06:09.438Z,1.00
2019-01-08T04:08:48.990Z,0.83
2019-01-08T04:11:28.130Z,1.00
2019-01-08T04:14:08.070Z,0.90
2019-01-08T04:20:00.090Z,0.90
2019-01-08T04:22:37.463Z,0.90
2019-01-08T04:25:17.210Z,0.90
2019-01-08T04:27:56.375Z,1.00
2019-01-08T04:30:36.439Z,1.00
2019-01-08T04:33:16.471Z,0.93
2019-01-08T04:35:56.563Z,1.00
2019-01-08T04:38:36.571Z,1.00
2019-01-08T04:41:16.712Z,1.00
2019-01-08T04:43:56.541Z,1.05
2019-01-08T04:46:33.867Z,0.90
2019-01-08T04:49:20.091Z,1.02
2019-01-08T04:54:58.041Z,1.10
2019-01-08T04:57:38.263Z,1.10
2019-01-08T05:00:17.767Z,1.20
2019-01-08T05:02:57.799Z,1.30
2019-01-08T05:05:37.707Z,1.35
2019-01-08T05:08:17.611Z,1.17
2019-01-08T05:10:57.015Z,1.60
2019-01-08T05:13:36.774Z,1.40
2019-01-08T05:16:16.883Z,1.20
2019-01-08T05:18:56.790Z,1.75
2019-01-08T05:21:36.766Z,1.55
2019-01-08T05:24:16.651Z,1.40
2019-01-08T05:26:55.836Z,1.60
2019-01-08T05:29:35.756Z,1.57
2019-01-08T05:32:15.755Z,1.93
2019-01-08T05:34:55.635Z,1.87
2019-01-08T05:37:36.864Z,1.90
2019-01-08T05:40:16.508Z,1.80
2019-01-08T05:42:56.579Z,1.70
2019-01-08T05:45:36.606Z,1.67
2019-01-08T05:48:16.572Z,2.10
2019-01-08T05:50:56.270Z,2.17
2019-01-08T05:53:36.226Z,2.00
2019-01-08T05:56:15.936Z,1.98
2019-01-08T05:58:56.125Z,2.05
2019-01-08T06:01:36.038Z,2.25
2019-01-08T06:04:15.245Z,2.60
2019-01-08T06:06:54.344Z,2.37
2019-01-08T06:09:34.471Z,2.50
2019-01-08T06:12:14.403Z,2.67
2019-01-08T06:14:54.212Z,2.65
2019-01-08T06:17:31.687Z,2.70
2019-01-08T06:20:11.420Z,2.95
2019-01-08T06:22:51.180Z,2.80
2019-01-08T06:25:30.588Z,2.85
2019-01-08T06:41:25.420Z,2.83
2019-01-08T06:43:54.296Z,2.90
2019-01-08T06:46:46.716Z,3.33
2019-01-08T06:52:33.976Z,3.70
2019-01-08T06:55:10.504Z,3.85
2019-01-08T06:58:37.601Z,5.22
2019-01-08T07:03:55.152Z,4.83
2019-01-08T07:06:24.546Z,4.70
2019-01-08T07:08:59.556Z,5.28
2019-01-08T07:14:29.711Z,5.30
2019-01-08T07:17:26.223Z,5.25
2019-01-08T07:20:18.352Z,5.58
2019-01-08T07:26:09.841Z,4.55
2019-01-08T07:28:53.622Z,4.78
2019-01-08T07:31:34.847Z,4.83
2019-01-08T07:34:11.022Z,4.83
2019-01-08T07:37:00.289Z,4.67
2019-01-08T07:39:28.988Z,4.10
2019-01-08T07:42:10.627Z,3.98
2019-01-08T07:44:47.685Z,4.00
2019-01-08T07:47:17.685Z,4.55
2019-01-08T07:49:56.928Z,3.98
2019-01-08T07:52:27.557Z,4.10
2019-01-08T07:55:09.815Z,4.45
2019-01-08T07:58:01.113Z,3.90
2019-01-08T08:00:49.996Z,4.10
2019-01-08T08:09:51.938Z,3.00
2019-01-08T08:15:34.810Z,3.08
2019-01-08T08:18:35.452Z,3.72
2019-01-08T08:21:37.849Z,3.17
2019-01-08T08:24:16.567Z,3.63
2019-01-08T08:26:50.797Z,2.87
2019-01-08T08:29:19.978Z,2.90
2019-01-08T08:31:57.238Z,2.67
2019-01-08T08:34:35.878Z,2.72
2019-01-08T08:37:15.472Z,2.50
2019-01-08T08:39:48.024Z,2.62
2019-01-08T08:45:18.833Z,2.22
2019-01-08T08:47:54.593Z,2.22
2019-01-08T08:50:25.825Z,2.65
2019-01-08T08:52:53.694Z,2.50
2019-01-08T08:55:22.771Z,2.97
2019-01-08T08:57:59.782Z,3.20
2019-01-08T09:00:46.514Z,3.05
2019-01-08T09:03:40.837Z,2.95
2019-01-08T09:06:22.407Z,3.57
2019-01-08T09:08:49.245Z,3.30
2019-01-08T09:11:19.100Z,3.75
2019-01-08T09:13:46.200Z,3.80
2019-01-08T09:16:22.742Z,3.45
2019-01-08T09:18:49.519Z,3.87
2019-01-08T09:21:25.332Z,4.05
2019-01-08T09:24:20.273Z,4.20
2019-01-08T09:26:50.572Z,4.13
2019-01-08T09:29:22.230Z,4.05
2019-01-08T09:32:14.961Z,4.90
2019-01-08T09:34:41.701Z,5.12
2019-01-08T09:37:33.823Z,5.40
2019-01-08T09:43:03.497Z,4.70
2019-01-08T09:45:33.752Z,5.83
2019-01-08T09:48:06.908Z,5.07
2019-01-08T09:50:38.947Z,5.03
2019-01-08T09:53:05.610Z,5.28
2019-01-08T09:55:40.835Z,5.60
2019-01-08T09:58:11.065Z,5.60
2019-01-08T10:00:41.098Z,5.60
2019-01-08T10:03:09.194Z,5.05
2019-01-08T10:05:50.469Z,4.40
2019-01-08T10:08:17.205Z,4.78
2019-01-08T10:10:48.728Z,4.55
2019-01-08T10:13:17.473Z,4.33
2019-01-08T10:15:44.353Z,5.05
2019-01-08T10:18:11.634Z,4.37
2019-01-08T10:20:45.676Z,4.92
2019-01-08T10:23:17.510Z,4.15
2019-01-08T10:25:51.955Z,4.90
2019-01-08T10:28:21.939Z,2.75
2019-01-08T10:30:50.517Z,3.62
2019-01-08T10:33:18.438Z,4.00
2019-01-08T10:35:45.357Z,3.45
2019-01-08T10:38:14.502Z,3.60
2019-01-08T10:40:41.876Z,3.50
2019-01-08T10:43:10.070Z,3.52
2019-01-08T10:45:38.134Z,3.08
2019-01-08T10:51:03.798Z,3.25
2019-01-08T10:53:31.141Z,2.97
2019-01-08T10:56:02.435Z,2.70
2019-01-08T11:01:46.687Z,2.47
2019-01-08T11:04:14.937Z,2.15
2019-01-08T11:06:49.156Z,2.60
2019-01-08T11:12:06.104Z,1.75
2019-01-08T11:14:32.896Z,1.60
2019-01-08T11:17:01.525Z,1.30
2019-01-08T11:19:28.548Z,1.32
2019-01-08T11:21:55.347Z,1.32
2019-01-08T11:24:23.834Z,1.57
2019-01-08T11:26:53.145Z,1.60
2019-01-08T11:29:39.453Z,1.73
2019-01-08T11:32:35.070Z,1.57
2019-01-08T11:35:45.214Z,1.55
2019-01-08T11:41:00.608Z,0.90
2019-01-08T11:52:14.211Z,1.20
2019-01-08T11:54:42.841Z,1.20
2019-01-08T11:57:11.148Z,0.83
2019-01-08T11:59:43.089Z,1.20
2019-01-08T12:02:21.277Z,1.40
2019-01-08T12:05:01.990Z,1.40
2019-01-08T12:07:39.939Z,1.70
2019-01-08T12:10:06.966Z,1.60
2019-01-08T12:12:37.757Z,1.50
2019-01-08T12:15:08.759Z,1.50
2019-01-08T12:17:38.598Z,1.50
2019-01-08T12:20:10.620Z,1.85
2019-01-08T12:22:40.859Z,1.20
2019-01-08T12:25:14.134Z,1.50
2019-01-08T12:27:46.653Z,1.37
2019-01-08T12:30:16.956Z,1.50
2019-01-08T12:32:48.425Z,1.40
2019-01-08T12:35:15.246Z,1.20
2019-01-08T12:37:42.209Z,1.42
2019-01-08T12:40:16.198Z,1.20
2019-01-08T12:42:43.136Z,1.60
2019-01-08T12:45:11.179Z,1.50
2019-01-08T12:47:47.958Z,1.20
2019-01-08T12:50:43.792Z,1.27
2019-01-08T12:53:19.102Z,0.95
2019-01-08T12:55:47.310Z,1.00
2019-01-08T12:58:14.037Z,0.90
2019-01-08T13:00:42.348Z,1.03
2019-01-08T13:06:01.995Z,1.17
2019-01-08T13:08:34.155Z,0.95
2019-01-08T13:11:05.041Z,0.90
2019-01-08T13:13:39.055Z,1.00
2019-01-08T13:16:08.703Z,0.83
2019-01-08T13:18:43.600Z,0.93
2019-01-08T13:21:11.611Z,1.10
2019-01-08T13:23:40.159Z,1.20
2019-01-08T13:26:10.099Z,1.00
2019-01-08T13:28:39.580Z,1.00
2019-01-08T13:31:20.727Z,1.00
2019-01-08T13:33:45.841Z,0.90
2019-01-08T13:36:16.797Z,0.90
2019-01-08T13:38:43.881Z,0.90
2019-01-08T13:41:20.391Z,1.10
2019-01-08T13:43:49.145Z,1.20
2019-01-08T13:46:17.154Z,1.00
2019-01-08T13:48:47.871Z,1.30
2019-01-08T13:54:03.867Z,1.10
2019-01-08T13:59:16.693Z,1.20
2019-01-08T14:01:53.248Z,0.90
2019-01-08T14:07:01.141Z,1.17
2019-01-08T14:09:37.173Z,1.20
2019-01-08T14:12:03.716Z,1.15
2019-01-08T14:17:33.045Z,1.30
2019-01-08T14:20:20.598Z,1.17
2019-01-08T14:22:52.164Z,1.00
2019-01-08T14:25:22.368Z,1.12
2019-01-08T14:30:58.147Z,1.00
2019-01-08T14:33:47.178Z,0.90
2019-01-08T14:36:12.266Z,1.00
2019-01-08T14:38:56.266Z,0.90
2019-01-08T14:48:05.629Z,0.80
2019-01-08T14:54:34.034Z,0.70
2019-01-08T14:57:14.119Z,0.90
2019-01-08T15:00:21.563Z,0.70
2019-01-08T15:07:01.690Z,1.00
2019-01-08T15:10:32.384Z,0.70
2019-01-08T15:13:25.334Z,0.80
2019-01-08T15:22:54.699Z,0.87
2019-01-08T15:25:20.011Z,0.90
2019-01-08T15:27:49.570Z,0.90
2019-01-08T15:30:19.292Z,0.80
2019-01-08T15:33:02.107Z,0.80
2019-01-08T15:41:52.593Z,0.67
2019-01-08T15:44:20.491Z,0.70
2019-01-08T15:50:06.481Z,0.73
2019-01-08T15:55:58.230Z,0.80
2019-01-08T16:01:27.399Z,0.70
2019-01-08T16:04:01.114Z,0.80
2019-01-08T16:06:32.480Z,0.87
2019-01-08T16:09:04.241Z,0.80
2019-01-08T16:11:50.438Z,1.07
2019-01-08T16:14:38.257Z,0.80
2019-01-08T16:17:27.773Z,1.03
2019-01-08T16:20:01.349Z,0.70
2019-01-08T16:25:29.635Z,0.67
2019-01-08T16:31:17.480Z,0.90
2019-01-08T16:33:59.473Z,0.87
2019-01-08T16:42:25.204Z,1.43
2019-01-08T16:44:52.119Z,1.20
2019-01-08T16:47:31.187Z,1.00
2019-01-08T16:50:20.915Z,1.20
2019-01-08T16:55:52.636Z,1.10
2019-01-08T17:01:15.905Z,0.80
2019-01-08T17:03:39.315Z,1.17
2019-01-08T17:06:39.258Z,0.90
2019-01-08T17:09:18.491Z,0.93
2019-01-08T17:18:21.066Z,0.90
2019-01-08T17:27:16.125Z,0.70
2019-01-08T17:30:09.641Z,0.90
2019-01-08T17:55:33.323Z,1.00
2019-01-08T18:08:11.125Z,0.70
2019-01-08T18:26:10.616Z,0.60
2019-01-08T19:03:59.823Z,1.03
2019-01-08T19:06:29.305Z,0.90
2019-01-08T19:09:33.070Z,0.90
2019-01-08T19:12:26.602Z,0.80
2019-01-08T19:18:11.227Z,0.60
2019-01-08T19:23:36.335Z,0.70
2019-01-08T19:29:26.644Z,0.80
2019-01-08T19:31:57.350Z,0.80
2019-01-08T19:34:44.318Z,0.80
2019-01-08T19:37:17.501Z,0.80
2019-01-08T19:43:04.139Z,0.87
2019-01-08T19:45:37.420Z,0.90
2019-01-08T19:48:15.510Z,0.80
2019-01-08T19:50:56.475Z,0.70
2019-01-08T19:53:32.489Z,0.77
2019-01-08T19:56:05.086Z,0.90
2019-01-08T20:01:29.516Z,0.70
2019-01-08T20:03:56.245Z,0.80
2019-01-08T20:06:30.027Z,0.70
2019-01-08T20:09:15.114Z,0.70
2019-01-08T20:11:48.379Z,0.70
2019-01-08T20:14:21.617Z,0.70
2019-01-08T20:16:57.238Z,0.70
2019-01-08T20:19:31.613Z,0.80
2019-01-08T20:22:22.622Z,0.80
2019-01-08T20:25:28.029Z,0.80
2019-01-08T20:31:13.004Z,0.70
2019-01-08T20:37:17.467Z,0.70
2019-01-08T20:43:04.747Z,0.60
2019-01-08T20:52:24.100Z,0.60
2019-01-08T20:55:54.457Z,0.70
2019-01-08T20:58:31.872Z,0.70
2019-01-08T21:01:18.871Z,0.63
2019-01-08T21:04:15.931Z,0.70
2019-01-08T21:07:28.605Z,0.60
2019-01-08T21:10:07.003Z,0.60
2019-01-08T21:15:37.446Z,0.60
2019-01-08T21:21:31.776Z,0.60
2019-01-08T21:23:59.033Z,0.70
2019-01-08T21:26:49.042Z,0.80
2019-01-08T21:39:06.877Z,0.70
2019-01-08T21:42:05.075Z,0.70
2019-01-08T21:44:44.490Z,0.70
2019-01-08T21:47:46.937Z,0.50
2019-01-08T21:50:31.331Z,0.70
2019-01-08T22:00:20.410Z,0.70
2019-01-08T22:02:38.263Z,0.70
2019-01-08T22:05:12.198Z,0.60
2019-01-08T22:19:36.904Z,0.60
2019-01-08T22:22:25.274Z,0.67
2019-01-08T22:25:11.542Z,0.60
2019-01-08T22:27:47.427Z,0.60
2019-01-08T22:30:40.782Z,0.60
2019-01-08T22:33:45.345Z,0.60
2019-01-08T22:36:50.286Z,0.60
2019-01-08T22:39:17.782Z,0.60
2019-01-08T22:45:05.495Z,0.80
2019-01-08T22:47:47.036Z,0.60
2019-01-08T22:56:06.834Z,0.70
2019-01-08T22:59:38.977Z,0.60
2019-01-08T23:02:33.307Z,0.70
2019-01-08T23:08:45.591Z,0.70
2019-01-08T23:11:19.569Z,0.80
2019-01-08T23:14:07.946Z,0.60
2019-01-08T23:19:29.721Z,0.83
2019-01-08T23:24:45.141Z,0.60
2019-01-08T23:27:15.731Z,0.70
2019-01-08T23:33:02.987Z,0.70
2019-01-08T23:36:00.621Z,0.70
2019-01-08T23:39:01.062Z,0.60
2019-01-08T23:41:32.595Z,0.70
2019-01-08T23:44:31.465Z,0.77
2019-01-08T23:50:26.978Z,0.83
2019-01-08T23:53:17.554Z,0.80
2019-01-08T23:56:31.532Z,0.80
2019-01-08T23:59:08.205Z,0.90
